Ambia, Indiana
Current Conditions -  °F | °C
As of 5:15 PM on Sunday 23 Nov 2014 (Local Time) from KDNV Reporting Station
Moderate Rain Moderate Rain  
Wind Chill: 51°   Ceiling: 300
Heat Index: 51°   Visibility: 5mi
Dew Point: 50°   Wind: 7mph
Humidity: 99%   Direction: 120°ESE
Pressure: 29.4"   Gusts: NA
Location:  40.49°N, 87.52°W
Report Text: KDNV 232215Z AUTO 12006KT 5SM RA OVC003 10/10 A2940 RMK AO2 P0002 T01030101
Loading
Personal Weather Stations






























Interactive Weather Map New forecast layout! Learn more

10-Day Weather Forecast

Advertisements
Track Severe Weather on mobile